createdAt,value
2022-10-22T13:34:37.827Z,100212.03
2022-10-22T13:39:59.073Z,100200.84
2022-10-22T13:45:20.969Z,100212.06
2022-10-22T13:50:42.719Z,100204.22
2022-10-22T13:56:04.020Z,100206.09
2022-10-22T14:01:27.746Z,100213.84
2022-10-22T14:06:49.250Z,100212.84
2022-10-22T14:12:16.959Z,100212.97
2022-10-22T14:17:39.288Z,100211.41
2022-10-22T14:23:13.413Z,100205.34
2022-10-22T14:28:41.277Z,100208.00
2022-10-22T14:34:11.094Z,100217.69
2022-10-22T14:39:32.459Z,100204.69
2022-10-22T14:44:54.004Z,100212.38
2022-10-22T14:50:15.820Z,100215.81
2022-10-22T14:55:37.264Z,100222.56
2022-10-22T15:00:58.655Z,100221.59
2022-10-22T15:06:20.130Z,100227.59
2022-10-22T15:11:42.837Z,100231.09
2022-10-22T15:17:04.299Z,100237.91
2022-10-22T15:22:25.525Z,100231.97
2022-10-22T15:27:50.344Z,100226.88
2022-10-22T15:33:13.142Z,100224.25
2022-10-22T15:38:34.335Z,100237.31
2022-10-22T15:43:55.496Z,100231.34
2022-10-22T15:49:17.619Z,100237.53
2022-10-22T15:54:41.141Z,100234.19
2022-10-22T16:00:04.416Z,100235.19
2022-10-22T16:05:33.689Z,100229.16
2022-10-22T16:10:55.168Z,100236.19
2022-10-22T16:16:16.675Z,100234.53
2022-10-22T16:21:38.350Z,100230.25
2022-10-22T16:27:00.370Z,100233.75
2022-10-22T16:32:21.730Z,100232.09
2022-10-22T16:37:43.695Z,100240.84
2022-10-22T16:43:06.065Z,100232.25
2022-10-22T16:48:27.316Z,100232.22
2022-10-22T16:53:49.206Z,100229.84
2022-10-22T16:59:10.494Z,100231.53
2022-10-22T17:04:32.154Z,100239.28
2022-10-22T17:09:53.449Z,100217.59
2022-10-22T17:15:15.149Z,100230.56
2022-10-22T17:20:36.445Z,100227.91
2022-10-22T17:26:09.018Z,100218.38
2022-10-22T17:31:33.270Z,100227.97
2022-10-22T17:36:55.767Z,100222.69
2022-10-22T17:42:17.331Z,100220.09
2022-10-22T17:47:38.959Z,100226.19
2022-10-22T17:53:00.547Z,100218.44
2022-10-22T17:58:22.059Z,100219.25
2022-10-22T18:03:43.703Z,100215.00
2022-10-22T18:09:06.911Z,100209.81
2022-10-22T18:14:28.246Z,100201.19
2022-10-22T18:19:49.718Z,100201.19
2022-10-22T18:25:12.006Z,100199.38
2022-10-22T18:30:34.948Z,100193.28
2022-10-22T18:35:57.053Z,100191.50
2022-10-22T18:41:19.383Z,100188.13
2022-10-22T18:46:40.704Z,100184.78
2022-10-22T18:52:01.816Z,100188.28
2022-10-22T18:57:23.259Z,100189.97
2022-10-22T19:02:44.863Z,100189.88
2022-10-22T19:08:06.383Z,100180.47
2022-10-22T19:13:28.626Z,100193.50
2022-10-22T19:18:59.562Z,100191.78
2022-10-22T19:24:21.049Z,100184.00
2022-10-22T19:29:45.354Z,100186.66
2022-10-22T19:35:06.903Z,100179.81
2022-10-22T19:40:28.660Z,100176.38
2022-10-22T19:45:50.183Z,100179.88
2022-10-22T19:51:17.957Z,100192.03
2022-10-22T19:56:39.478Z,100196.41
2022-10-22T20:02:01.185Z,100191.28
2022-10-22T20:07:22.722Z,100192.28
2022-10-22T20:12:43.931Z,100181.97
2022-10-22T20:18:05.569Z,100180.28
2022-10-22T20:23:27.027Z,100186.44
2022-10-22T20:28:48.504Z,100185.59
2022-10-22T20:34:10.144Z,100183.03
2022-10-22T20:39:31.826Z,100169.16
2022-10-22T20:44:53.296Z,100163.97
2022-10-22T20:50:14.804Z,100161.38
2022-10-22T20:55:36.555Z,100152.72
2022-10-22T21:01:01.101Z,100159.66
2022-10-22T21:06:23.457Z,100152.78
2022-10-22T21:11:45.701Z,100148.44
2022-10-22T21:17:08.344Z,100147.59
2022-10-22T21:22:29.951Z,100147.56
2022-10-22T21:27:51.467Z,100148.41
2022-10-22T21:33:13.151Z,100144.03
2022-10-22T21:38:35.328Z,100144.06
2022-10-22T21:43:56.854Z,100141.41
2022-10-22T21:49:18.224Z,100131.03
2022-10-22T21:54:39.990Z,100137.03
2022-10-22T22:00:01.335Z,100121.44
2022-10-22T22:05:23.042Z,100129.28
2022-10-22T22:10:44.281Z,100126.66
2022-10-22T22:16:08.996Z,100128.41
2022-10-22T22:21:30.936Z,100123.28
2022-10-22T22:26:52.505Z,100122.44
2022-10-22T22:32:14.588Z,100122.41
2022-10-22T22:37:35.774Z,100105.97
2022-10-22T22:42:57.327Z,100109.47
2022-10-22T22:48:18.743Z,100116.41
2022-10-22T22:53:40.161Z,100111.22
2022-10-22T22:59:01.706Z,100099.97
2022-10-22T23:04:23.938Z,100103.41
2022-10-22T23:09:45.525Z,100099.06
2022-10-22T23:15:07.465Z,100093.91
2022-10-22T23:20:29.184Z,100085.25
2022-10-22T23:25:50.626Z,100080.06
2022-10-22T23:31:17.904Z,100067.13
2022-10-22T23:36:39.582Z,100054.16
2022-10-22T23:42:01.301Z,100048.13
2022-10-22T23:47:22.948Z,100044.78
2022-10-22T23:52:44.768Z,100038.81
2022-10-22T23:58:06.761Z,100019.91
